Terminal Aerodrome Forecast
Issued by NWS

Home | Current Version | Previous Version | Text Only | Print | Product List | Glossary On
Versions: 1 2 3 4 5 6 7 8 9 10 11 12 13 14 15 16 17
000
FTUS44 KTSA 241400 AAA
TAFMLC
TAF AMD
KMLC 241416Z 2414/2512 VRB03KT P6SM SCT250
     FM241500 15005KT P6SM SCT050
     FM250100 18003KT P6SM SKC=

USA.gov is the U.S. government's official web portal to all federal, state and local government web resources and services.